createdAt,value
2023-03-17T00:00:31.000Z,101749.28
2023-03-17T00:03:01.241Z,101754.97
2023-03-17T00:05:34.369Z,101753.75
2023-03-17T00:08:45.359Z,101743.66
2023-03-17T00:11:25.324Z,101744.59
2023-03-17T00:13:56.582Z,101761.53
2023-03-17T00:16:27.269Z,101749.09
2023-03-17T00:18:57.165Z,101737.44
2023-03-17T00:21:29.009Z,101742.13
2023-03-17T00:23:56.307Z,101737.97
2023-03-17T00:26:24.194Z,101732.97
2023-03-17T00:28:55.134Z,101739.69
2023-03-17T00:31:32.105Z,101736.97
2023-03-17T00:34:07.734Z,101735.91
2023-03-17T00:36:40.357Z,101726.78
2023-03-17T00:41:40.698Z,101724.28
2023-03-17T00:44:13.469Z,101722.06
2023-03-17T00:46:43.275Z,101720.75
2023-03-17T00:49:31.699Z,101728.25
2023-03-17T00:52:06.846Z,101734.53
2023-03-17T00:54:34.293Z,101731.31
2023-03-17T00:57:04.340Z,101734.53
2023-03-17T00:59:43.141Z,101729.84
2023-03-17T01:02:17.144Z,101727.09
2023-03-17T01:04:52.808Z,101732.00
2023-03-17T01:07:29.986Z,101728.31
2023-03-17T01:09:56.709Z,101726.22
2023-03-17T01:12:26.348Z,101731.56
2023-03-17T01:15:06.520Z,101726.34
2023-03-17T01:17:35.905Z,101726.84
2023-03-17T01:20:02.762Z,101723.97
2023-03-17T01:22:32.091Z,101724.22
2023-03-17T01:25:02.739Z,101724.47
2023-03-17T01:27:33.743Z,101725.88
2023-03-17T01:30:00.382Z,101722.59
2023-03-17T01:32:54.357Z,101722.06
2023-03-17T01:35:38.028Z,101720.94
2023-03-17T01:38:08.821Z,101715.34
2023-03-17T01:40:45.477Z,101710.13
2023-03-17T01:43:14.776Z,101715.13
2023-03-17T01:46:25.994Z,101707.91
2023-03-17T01:48:59.343Z,101702.09
2023-03-17T01:51:56.640Z,101693.28
2023-03-17T01:54:44.717Z,101708.66
2023-03-17T01:57:27.134Z,101703.94
2023-03-17T02:00:13.841Z,101705.13
2023-03-17T02:02:46.588Z,101702.59
2023-03-17T02:05:16.446Z,101697.22
2023-03-17T02:07:46.829Z,101701.84
2023-03-17T02:10:18.843Z,101700.50
2023-03-17T02:12:53.175Z,101698.81
2023-03-17T02:15:28.344Z,101698.13
2023-03-17T02:18:03.566Z,101698.59
2023-03-17T02:20:30.262Z,101703.03
2023-03-17T02:22:58.611Z,101705.03
2023-03-17T02:25:30.564Z,101701.94
2023-03-17T02:28:06.426Z,101695.31
2023-03-17T02:30:35.148Z,101699.84
2023-03-17T02:33:10.780Z,101708.41
2023-03-17T02:35:39.619Z,101703.53
2023-03-17T02:38:17.649Z,101705.84
2023-03-17T02:40:46.929Z,101705.53
2023-03-17T02:43:13.566Z,101707.00
2023-03-17T02:45:40.168Z,101696.19
2023-03-17T02:48:06.812Z,101698.94
2023-03-17T02:50:43.878Z,101698.09
2023-03-17T02:53:10.738Z,101700.25
2023-03-17T02:55:51.672Z,101699.44
2023-03-17T02:58:36.969Z,101690.13
2023-03-17T03:01:06.941Z,101692.34
2023-03-17T03:03:33.663Z,101698.09
2023-03-17T03:06:03.209Z,101701.25
2023-03-17T03:08:43.311Z,101699.03
2023-03-17T03:11:12.658Z,101695.94
2023-03-17T03:13:47.293Z,101706.38
2023-03-17T03:16:20.810Z,101704.66
2023-03-17T03:19:02.830Z,101703.63
2023-03-17T03:21:33.123Z,101699.72
2023-03-17T03:24:08.744Z,101700.78
2023-03-17T03:26:35.527Z,101695.78
2023-03-17T03:29:02.165Z,101699.47
2023-03-17T03:31:31.299Z,101696.38
2023-03-17T03:34:00.714Z,101709.09
2023-03-17T03:36:27.353Z,101704.56
2023-03-17T03:38:54.199Z,101708.63
2023-03-17T03:41:20.792Z,101715.63
2023-03-17T03:43:53.097Z,101706.97
2023-03-17T03:46:44.638Z,101711.25
2023-03-17T03:49:29.635Z,101709.13
2023-03-17T03:51:56.242Z,101705.19
2023-03-17T03:54:22.842Z,101704.94
2023-03-17T03:56:55.143Z,101705.78
2023-03-17T03:59:21.733Z,101711.00
2023-03-17T04:02:00.140Z,101712.78
2023-03-17T04:04:28.019Z,101725.50
2023-03-17T04:06:57.605Z,101719.09
2023-03-17T04:09:24.433Z,101719.19
2023-03-17T04:11:53.084Z,101718.03
2023-03-17T04:14:28.305Z,101724.44
2023-03-17T04:16:55.062Z,101720.19
2023-03-17T04:19:24.474Z,101722.31
2023-03-17T04:21:54.872Z,101724.44
2023-03-17T04:24:23.800Z,101726.09
2023-03-17T04:26:54.357Z,101731.69
2023-03-17T04:29:27.960Z,101729.56
2023-03-17T04:32:09.381Z,101722.06
2023-03-17T04:37:26.644Z,101725.03
2023-03-17T04:39:53.240Z,101723.84
2023-03-17T04:42:22.453Z,101718.13
2023-03-17T04:44:52.772Z,101721.91
2023-03-17T04:47:19.377Z,101721.94
2023-03-17T04:49:45.978Z,101723.84
2023-03-17T04:52:12.716Z,101718.38
2023-03-17T04:54:43.189Z,101717.16
2023-03-17T04:57:10.160Z,101709.19
2023-03-17T04:59:44.336Z,101699.47
2023-03-17T05:02:12.988Z,101713.31
2023-03-17T05:04:46.278Z,101715.00
2023-03-17T05:07:15.891Z,101708.13
2023-03-17T05:09:42.640Z,101705.16
2023-03-17T05:12:10.047Z,101709.09
2023-03-17T05:14:40.541Z,101710.38
2023-03-17T05:19:50.293Z,101713.72
2023-03-17T05:22:16.827Z,101713.81
2023-03-17T05:24:43.440Z,101722.53
2023-03-17T05:27:12.652Z,101721.81
2023-03-17T05:29:48.132Z,101723.59
2023-03-17T05:32:17.921Z,101716.34
2023-03-17T05:34:44.521Z,101712.63
2023-03-17T05:37:14.452Z,101711.69
2023-03-17T05:39:46.758Z,101712.88
2023-03-17T05:42:13.340Z,101713.25
2023-03-17T05:44:39.955Z,101722.06
2023-03-17T05:47:06.585Z,101721.94
2023-03-17T05:49:35.456Z,101706.25
2023-03-17T05:52:02.040Z,101717.06
2023-03-17T05:54:31.253Z,101711.13
2023-03-17T05:56:57.820Z,101713.97
2023-03-17T05:59:24.406Z,101711.81
2023-03-17T06:01:50.957Z,101711.84
2023-03-17T06:04:17.575Z,101715.84
2023-03-17T06:06:47.132Z,101714.69
2023-03-17T06:09:13.667Z,101716.81
2023-03-17T06:11:45.424Z,101707.44
2023-03-17T06:14:12.028Z,101716.34
2023-03-17T06:16:38.601Z,101713.50
2023-03-17T06:19:08.036Z,101712.19
2023-03-17T06:21:34.645Z,101715.28
2023-03-17T06:26:54.350Z,101715.66
2023-03-17T06:29:21.333Z,101716.13
2023-03-17T06:31:47.928Z,101714.31
2023-03-17T06:34:29.255Z,101717.66
2023-03-17T06:36:55.843Z,101713.84
2023-03-17T06:39:22.896Z,101714.31
2023-03-17T06:41:49.576Z,101717.31
2023-03-17T06:44:25.559Z,101719.19
2023-03-17T06:47:02.205Z,101716.94
2023-03-17T06:49:29.686Z,101723.72
2023-03-17T06:51:56.429Z,101714.56
2023-03-17T06:54:23.615Z,101722.06
2023-03-17T06:56:54.808Z,101727.41
2023-03-17T06:59:24.205Z,101724.47
2023-03-17T07:01:52.634Z,101726.00
2023-03-17T07:04:21.782Z,101728.47
2023-03-17T07:06:58.268Z,101732.97
2023-03-17T07:09:27.149Z,101746.31
2023-03-17T07:11:58.439Z,101740.13
2023-03-17T07:14:30.168Z,101745.59
2023-03-17T07:16:57.652Z,101741.28
2023-03-17T07:19:25.628Z,101737.19
2023-03-17T07:21:52.253Z,101747.56
2023-03-17T07:24:18.850Z,101737.81
2023-03-17T07:26:48.236Z,101741.03
2023-03-17T07:29:15.268Z,101738.88
2023-03-17T07:31:43.737Z,101740.38
2023-03-17T07:34:13.343Z,101742.16
2023-03-17T07:36:46.133Z,101747.91
2023-03-17T07:39:14.835Z,101750.81
2023-03-17T07:41:52.320Z,101737.84
2023-03-17T07:44:32.295Z,101746.06
2023-03-17T07:47:02.937Z,101742.72
2023-03-17T07:49:41.193Z,101745.16
2023-03-17T07:52:21.400Z,101736.28
2023-03-17T07:54:56.395Z,101739.88
2023-03-17T07:57:23.818Z,101741.72
2023-03-17T07:59:59.588Z,101736.84
2023-03-17T08:02:29.545Z,101736.28
2023-03-17T08:05:08.305Z,101732.13
2023-03-17T08:07:36.063Z,101728.06
2023-03-17T08:10:09.338Z,101738.22
2023-03-17T08:12:36.282Z,101739.47
2023-03-17T08:15:14.120Z,101729.25
2023-03-17T08:17:40.718Z,101733.25
2023-03-17T08:20:07.893Z,101732.63
2023-03-17T08:22:34.484Z,101730.38
2023-03-17T08:25:01.136Z,101731.06
2023-03-17T08:27:33.863Z,101733.97
2023-03-17T08:30:04.763Z,101725.34
2023-03-17T08:32:48.746Z,101728.69
2023-03-17T08:35:25.243Z,101730.50
2023-03-17T08:37:52.688Z,101727.25
2023-03-17T08:40:30.409Z,101723.66
2023-03-17T08:43:04.358Z,101728.47
2023-03-17T08:45:31.085Z,101725.00
2023-03-17T08:47:57.856Z,101727.28
2023-03-17T08:50:25.067Z,101731.03
2023-03-17T08:52:52.364Z,101728.78
2023-03-17T08:55:19.053Z,101727.72
2023-03-17T08:57:54.784Z,101728.63
2023-03-17T09:00:22.671Z,101731.81
2023-03-17T09:02:56.244Z,101728.78
2023-03-17T09:05:22.966Z,101730.59
2023-03-17T09:07:59.375Z,101720.63
2023-03-17T09:10:29.476Z,101728.63
2023-03-17T09:13:06.390Z,101734.44
2023-03-17T09:15:34.965Z,101722.09
2023-03-17T09:18:06.719Z,101725.09
2023-03-17T09:20:39.250Z,101725.09
2023-03-17T09:23:20.438Z,101720.09
2023-03-17T09:25:47.078Z,101712.78
2023-03-17T09:28:13.745Z,101720.22
2023-03-17T09:30:45.401Z,101709.53
2023-03-17T09:33:16.209Z,101712.38
2023-03-17T09:35:47.264Z,101713.06
2023-03-17T09:38:15.568Z,101709.22
2023-03-17T09:40:57.564Z,101711.34
2023-03-17T09:43:31.818Z,101715.16
2023-03-17T09:46:22.914Z,101698.09
2023-03-17T09:48:58.063Z,101699.00
2023-03-17T09:51:29.172Z,101703.22
2023-03-17T09:54:08.030Z,101708.31
2023-03-17T09:56:43.721Z,101696.28
2023-03-17T09:59:44.915Z,101698.81
2023-03-17T10:02:36.243Z,101702.13
2023-03-17T10:05:16.468Z,101700.47
2023-03-17T10:08:27.051Z,101695.03
2023-03-17T10:11:18.108Z,101695.06
2023-03-17T10:14:14.788Z,101686.38
2023-03-17T10:16:58.731Z,101679.72
2023-03-17T10:19:59.411Z,101685.00
2023-03-17T10:22:37.141Z,101691.63
2023-03-17T10:25:22.649Z,101685.31
2023-03-17T10:28:03.073Z,101679.72
2023-03-17T10:30:33.083Z,101681.69
2023-03-17T10:33:08.278Z,101672.31
2023-03-17T10:35:38.622Z,101661.91
2023-03-17T10:41:30.912Z,101673.41
2023-03-17T10:44:31.022Z,101666.63
2023-03-17T10:47:02.660Z,101662.91
2023-03-17T10:49:35.786Z,101672.81
2023-03-17T10:52:14.661Z,101672.81
2023-03-17T10:54:41.230Z,101665.69
2023-03-17T10:57:08.445Z,101672.13
2023-03-17T10:59:52.842Z,101669.50
2023-03-17T11:02:46.536Z,101677.78
2023-03-17T11:05:30.721Z,101670.13
2023-03-17T11:08:23.889Z,101667.97
2023-03-17T11:11:13.541Z,101661.38
2023-03-17T11:13:48.633Z,101667.19
2023-03-17T11:16:23.636Z,101664.00
2023-03-17T11:18:54.674Z,101659.38
2023-03-17T11:21:41.952Z,101658.25
2023-03-17T11:24:23.584Z,101646.00
2023-03-17T11:27:19.920Z,101646.16
2023-03-17T11:30:20.820Z,101638.19
2023-03-17T11:32:51.288Z,101636.38
2023-03-17T11:35:44.593Z,101640.84
2023-03-17T11:38:47.916Z,101628.09
2023-03-17T11:41:36.420Z,101627.88
2023-03-17T11:44:29.169Z,101623.47
2023-03-17T11:47:49.259Z,101617.31
2023-03-17T11:50:34.784Z,101628.88
2023-03-17T11:53:19.737Z,101611.53
2023-03-17T11:55:58.451Z,101606.19
2023-03-17T11:58:46.692Z,101605.69
2023-03-17T12:01:21.831Z,101598.47
2023-03-17T12:03:55.063Z,101597.91
2023-03-17T12:06:29.968Z,101595.25
2023-03-17T12:09:32.346Z,101598.06
2023-03-17T12:12:00.418Z,101589.16
2023-03-17T12:14:33.078Z,101582.78
2023-03-17T12:17:33.583Z,101584.69
2023-03-17T12:20:07.645Z,101573.44
2023-03-17T12:22:47.197Z,101576.84
2023-03-17T12:25:48.637Z,101577.25
2023-03-17T12:28:25.414Z,101579.53
2023-03-17T12:31:08.294Z,101572.22
2023-03-17T12:34:07.277Z,101565.03
2023-03-17T12:36:37.656Z,101556.72
2023-03-17T12:39:49.395Z,101560.22
2023-03-17T12:42:35.182Z,101555.75
2023-03-17T12:45:35.906Z,101549.56
2023-03-17T12:48:37.365Z,101549.97
2023-03-17T12:51:04.892Z,101540.84
2023-03-17T12:53:51.090Z,101544.81
2023-03-17T12:56:34.143Z,101535.16
2023-03-17T12:59:11.269Z,101534.66
2023-03-17T13:01:57.626Z,101531.59
2023-03-17T13:04:27.236Z,101528.69
2023-03-17T13:07:28.119Z,101524.72
2023-03-17T13:10:00.544Z,101513.00
2023-03-17T13:12:51.277Z,101514.94
2023-03-17T13:15:41.316Z,101513.13
2023-03-17T13:18:19.692Z,101498.94
2023-03-17T13:21:01.108Z,101500.03
2023-03-17T13:23:42.746Z,101494.13
2023-03-17T13:26:16.515Z,101491.47
2023-03-17T13:28:46.533Z,101491.31
2023-03-17T13:31:33.537Z,101489.84
2023-03-17T13:34:23.397Z,101482.63
2023-03-17T13:37:14.678Z,101482.72
2023-03-17T13:39:51.396Z,101484.53
2023-03-17T13:42:24.169Z,101483.31
2023-03-17T13:45:12.241Z,101479.31
2023-03-17T13:47:47.477Z,101473.16
2023-03-17T13:50:25.224Z,101474.78
2023-03-17T13:53:05.105Z,101473.84
2023-03-17T13:55:49.244Z,101464.69
2023-03-17T13:58:33.597Z,101462.19
2023-03-17T14:01:07.737Z,101456.88
2023-03-17T14:03:43.354Z,101468.81
2023-03-17T14:06:12.465Z,101454.81
2023-03-17T14:08:46.919Z,101447.59
2023-03-17T14:11:31.355Z,101451.75
2023-03-17T14:14:33.615Z,101443.84
2023-03-17T14:17:19.103Z,101441.88
2023-03-17T14:20:21.892Z,101442.41
2023-03-17T14:23:17.620Z,101433.81
2023-03-17T14:25:47.986Z,101437.09
2023-03-17T14:28:17.797Z,101442.88
2023-03-17T14:31:21.039Z,101423.84
2023-03-17T14:33:50.132Z,101426.59
2023-03-17T14:36:22.330Z,101428.97
2023-03-17T14:39:04.157Z,101421.00
2023-03-17T14:41:36.136Z,101423.19
2023-03-17T14:44:02.658Z,101424.22
2023-03-17T14:46:38.184Z,101419.94
2023-03-17T14:49:25.418Z,101412.50
2023-03-17T14:51:55.474Z,101420.28
2023-03-17T14:54:28.754Z,101414.31
2023-03-17T14:57:01.096Z,101417.63
2023-03-17T15:00:02.507Z,101410.31
2023-03-17T15:02:39.025Z,101406.19
2023-03-17T15:05:37.349Z,101402.34
2023-03-17T15:08:36.076Z,101407.28
2023-03-17T15:11:09.268Z,101412.41
2023-03-17T15:13:38.238Z,101402.19
2023-03-17T15:16:34.924Z,101408.66
2023-03-17T15:19:08.721Z,101409.94
2023-03-17T15:21:41.309Z,101405.53
2023-03-17T15:24:39.060Z,101409.00
2023-03-17T15:27:17.329Z,101407.25
2023-03-17T15:29:52.260Z,101401.97
2023-03-17T15:32:29.014Z,101400.69
2023-03-17T15:34:59.370Z,101400.38
2023-03-17T15:37:33.814Z,101398.38
2023-03-17T15:40:02.671Z,101395.38
2023-03-17T15:42:32.318Z,101392.44
2023-03-17T15:44:58.979Z,101406.06
2023-03-17T15:47:28.044Z,101395.63
2023-03-17T15:50:02.322Z,101387.19
2023-03-17T15:52:31.765Z,101397.69
2023-03-17T15:54:59.412Z,101392.56
2023-03-17T15:57:37.367Z,101391.28
2023-03-17T16:00:04.706Z,101398.69
2023-03-17T16:02:35.488Z,101398.59
2023-03-17T16:05:11.414Z,101399.56
2023-03-17T16:07:38.025Z,101386.41
2023-03-17T16:10:24.838Z,101392.91
2023-03-17T16:12:52.560Z,101388.81
2023-03-17T16:15:35.970Z,101383.81
2023-03-17T16:18:12.639Z,101390.66
2023-03-17T16:21:25.905Z,101392.00
2023-03-17T16:24:07.119Z,101395.16
2023-03-17T16:26:36.389Z,101393.91
2023-03-17T16:29:17.146Z,101391.72
2023-03-17T16:31:49.094Z,101389.94
2023-03-17T16:34:26.266Z,101400.25
2023-03-17T16:36:53.819Z,101395.66
2023-03-17T16:39:37.802Z,101387.75
2023-03-17T16:42:25.423Z,101389.63
2023-03-17T16:44:54.127Z,101387.78
2023-03-17T16:47:21.640Z,101386.66
2023-03-17T16:49:48.212Z,101390.66
2023-03-17T16:52:25.992Z,101391.50
2023-03-17T16:55:00.587Z,101387.38
2023-03-17T16:57:33.711Z,101389.22
2023-03-17T17:00:11.649Z,101386.13
2023-03-17T17:02:38.300Z,101388.78
2023-03-17T17:05:22.012Z,101393.09
2023-03-17T17:07:56.293Z,101392.44
2023-03-17T17:10:27.476Z,101381.59
2023-03-17T17:12:54.985Z,101388.34
2023-03-17T17:15:22.695Z,101383.25
2023-03-17T17:17:58.712Z,101386.09
2023-03-17T17:20:36.919Z,101382.78
2023-03-17T17:23:32.325Z,101384.56
2023-03-17T17:25:58.967Z,101390.03
2023-03-17T17:28:40.568Z,101384.09
2023-03-17T17:31:13.803Z,101383.75
2023-03-17T17:33:47.750Z,101392.34
2023-03-17T17:36:22.715Z,101388.41
2023-03-17T17:38:49.282Z,101382.59
2023-03-17T17:44:16.772Z,101389.84
2023-03-17T17:46:49.108Z,101383.25
2023-03-17T17:49:21.164Z,101383.72
2023-03-17T17:54:41.506Z,101382.72
2023-03-17T17:57:14.489Z,101384.22
2023-03-17T17:59:50.214Z,101383.50
2023-03-17T18:02:35.930Z,101381.09
2023-03-17T18:05:09.697Z,101383.34
2023-03-17T18:07:38.874Z,101383.34
2023-03-17T18:10:16.757Z,101388.28
2023-03-17T18:12:44.328Z,101382.47
2023-03-17T18:15:11.606Z,101379.50
2023-03-17T18:17:42.846Z,101379.34
2023-03-17T18:20:15.842Z,101385.09
2023-03-17T18:22:52.022Z,101384.22
2023-03-17T18:25:20.073Z,101389.31
2023-03-17T18:27:47.630Z,101391.34
2023-03-17T18:30:31.143Z,101386.19
2023-03-17T18:33:11.995Z,101383.84
2023-03-17T18:35:48.861Z,101385.81
2023-03-17T18:38:15.563Z,101382.84
2023-03-17T18:40:53.571Z,101382.66
2023-03-17T18:43:24.038Z,101377.03
2023-03-17T18:46:09.001Z,101380.66
2023-03-17T18:48:35.710Z,101371.50
2023-03-17T18:51:10.413Z,101368.53
2023-03-17T18:53:42.817Z,101363.91
2023-03-17T18:56:12.219Z,101366.81
2023-03-17T18:58:41.368Z,101364.38
2023-03-17T19:01:11.122Z,101363.91
2023-03-17T19:03:38.324Z,101371.13
2023-03-17T19:06:18.668Z,101366.16
2023-03-17T19:08:54.705Z,101364.91
2023-03-17T19:11:24.427Z,101365.06
2023-03-17T19:14:07.576Z,101365.53
2023-03-17T19:16:47.413Z,101370.47
2023-03-17T19:19:25.184Z,101371.88
2023-03-17T19:21:59.616Z,101362.94
2023-03-17T19:24:27.605Z,101363.91
2023-03-17T19:26:54.212Z,101369.34
2023-03-17T19:29:31.162Z,101364.53
2023-03-17T19:32:28.701Z,101371.31
2023-03-17T19:35:05.554Z,101362.06
2023-03-17T19:37:39.946Z,101362.00
2023-03-17T19:40:10.548Z,101367.72
2023-03-17T19:42:49.281Z,101364.72
2023-03-17T19:45:48.234Z,101373.19
2023-03-17T19:48:15.878Z,101367.38
2023-03-17T19:50:42.534Z,101362.69
2023-03-17T19:53:09.808Z,101374.03
2023-03-17T19:55:39.383Z,101375.47
2023-03-17T19:58:06.167Z,101374.66
2023-03-17T20:00:38.764Z,101379.63
2023-03-17T20:03:06.018Z,101378.09
2023-03-17T20:05:32.759Z,101372.97
2023-03-17T20:08:05.968Z,101372.75
2023-03-17T20:10:33.229Z,101370.03
2023-03-17T20:13:03.229Z,101369.91
2023-03-17T20:15:29.875Z,101368.38
2023-03-17T20:17:56.435Z,101368.00
2023-03-17T20:20:28.868Z,101366.28
2023-03-17T20:23:05.350Z,101364.41
2023-03-17T20:25:34.562Z,101366.66
2023-03-17T20:28:04.125Z,101364.34
2023-03-17T20:30:34.171Z,101361.72
2023-03-17T20:33:01.217Z,101361.81
2023-03-17T20:35:31.743Z,101360.88
2023-03-17T20:37:59.320Z,101352.28
2023-03-17T20:40:30.525Z,101353.34
2023-03-17T20:43:03.816Z,101359.44
2023-03-17T20:45:36.174Z,101355.75
2023-03-17T20:48:08.778Z,101350.94
2023-03-17T20:50:45.940Z,101353.13
2023-03-17T20:53:24.885Z,101351.97
2023-03-17T20:55:58.497Z,101353.25
2023-03-17T20:58:37.218Z,101349.06
2023-03-17T21:01:10.945Z,101351.44
2023-03-17T21:03:38.947Z,101352.84
2023-03-17T21:06:05.791Z,101351.38
2023-03-17T21:08:32.475Z,101356.22
2023-03-17T21:10:59.210Z,101352.53
2023-03-17T21:13:33.317Z,101359.91
2023-03-17T21:16:08.391Z,101355.66
2023-03-17T21:18:34.975Z,101353.56
2023-03-17T21:21:01.528Z,101352.59
2023-03-17T21:23:37.059Z,101347.34
2023-03-17T21:26:10.303Z,101347.25
2023-03-17T21:28:41.628Z,101354.38
2023-03-17T21:31:11.416Z,101348.88
2023-03-17T21:33:45.734Z,101337.97
2023-03-17T21:36:19.603Z,101347.16
2023-03-17T21:38:57.562Z,101346.16
2023-03-17T21:41:46.181Z,101340.63
2023-03-17T21:44:28.127Z,101339.28
2023-03-17T21:47:09.391Z,101336.25
2023-03-17T21:50:04.936Z,101342.41
2023-03-17T21:52:38.681Z,101334.94
2023-03-17T21:55:05.872Z,101337.97
2023-03-17T21:57:40.698Z,101331.97
2023-03-17T22:00:17.991Z,101324.19
2023-03-17T22:02:48.445Z,101328.41
2023-03-17T22:05:15.145Z,101327.44
2023-03-17T22:07:44.846Z,101329.69
2023-03-17T22:10:32.316Z,101332.00
2023-03-17T22:13:07.993Z,101334.78
2023-03-17T22:15:38.162Z,101331.88
2023-03-17T22:18:10.722Z,101336.84
2023-03-17T22:20:53.982Z,101330.25
2023-03-17T22:23:24.996Z,101323.44
2023-03-17T22:25:54.900Z,101323.72
2023-03-17T22:28:22.415Z,101325.00
2023-03-17T22:30:57.612Z,101330.84
2023-03-17T22:33:30.296Z,101326.91
2023-03-17T22:35:59.990Z,101319.28
2023-03-17T22:38:29.682Z,101331.38
2023-03-17T22:41:11.030Z,101331.59
2023-03-17T22:43:41.307Z,101328.50
2023-03-17T22:46:18.708Z,101327.28
2023-03-17T22:48:46.655Z,101326.31
2023-03-17T22:51:25.359Z,101318.16
2023-03-17T22:53:52.511Z,101323.16
2023-03-17T22:56:20.021Z,101327.72
2023-03-17T22:59:06.620Z,101320.28
2023-03-17T23:01:36.034Z,101326.50
2023-03-17T23:04:08.970Z,101320.03
2023-03-17T23:06:38.048Z,101329.25
2023-03-17T23:09:08.748Z,101334.50
2023-03-17T23:11:35.562Z,101331.88
2023-03-17T23:14:02.167Z,101331.59
2023-03-17T23:16:28.717Z,101338.28
2023-03-17T23:18:56.027Z,101347.13
2023-03-17T23:21:40.212Z,101341.31
2023-03-17T23:24:07.904Z,101338.78
2023-03-17T23:26:35.049Z,101333.88
2023-03-17T23:29:04.665Z,101336.63
2023-03-17T23:31:39.098Z,101333.63
2023-03-17T23:36:54.033Z,101333.06
2023-03-17T23:39:28.749Z,101337.22
2023-03-17T23:42:03.274Z,101326.47
2023-03-17T23:44:51.579Z,101325.06
2023-03-17T23:47:19.012Z,101326.03
2023-03-17T23:49:50.498Z,101321.47
2023-03-17T23:52:23.472Z,101317.75
2023-03-17T23:54:50.209Z,101324.75
2023-03-17T23:57:19.122Z,101328.06
2023-03-17T23:59:49.868Z,101320.91
